sensor_id;sensor_type;location;lat;lon;timestamp;P1;durP1;ratioP1;P2;durP2;ratioP2
48751;SDS011;34544;48.836;9.174;2022-12-04T00:01:49;26.92;;;13.05;;
48751;SDS011;34544;48.836;9.174;2022-12-04T00:04:14;28.02;;;13.68;;
48751;SDS011;34544;48.836;9.174;2022-12-04T00:06:40;32.42;;;15.90;;
48751;SDS011;34544;48.836;9.174;2022-12-04T00:09:06;28.95;;;15.93;;
48751;SDS011;34544;48.836;9.174;2022-12-04T00:11:32;28.63;;;14.15;;
48751;SDS011;34544;48.836;9.174;2022-12-04T00:13:58;31.77;;;15.07;;
48751;SDS011;34544;48.836;9.174;2022-12-04T00:16:25;27.63;;;14.02;;
48751;SDS011;34544;48.836;9.174;2022-12-04T00:18:54;29.00;;;15.55;;
48751;SDS011;34544;48.836;9.174;2022-12-04T00:21:20;29.00;;;14.27;;
48751;SDS011;34544;48.836;9.174;2022-12-04T00:23:47;25.98;;;15.18;;
48751;SDS011;34544;48.836;9.174;2022-12-04T00:26:31;28.90;;;16.48;;
48751;SDS011;34544;48.836;9.174;2022-12-04T00:28:57;28.98;;;15.57;;
48751;SDS011;34544;48.836;9.174;2022-12-04T00:31:24;36.67;;;16.83;;
48751;SDS011;34544;48.836;9.174;2022-12-04T00:33:51;27.33;;;14.00;;
48751;SDS011;34544;48.836;9.174;2022-12-04T00:36:18;30.63;;;15.07;;
48751;SDS011;34544;48.836;9.174;2022-12-04T00:38:45;24.15;;;14.57;;
48751;SDS011;34544;48.836;9.174;2022-12-04T00:41:11;32.25;;;14.85;;
48751;SDS011;34544;48.836;9.174;2022-12-04T00:43:39;30.48;;;15.70;;
48751;SDS011;34544;48.836;9.174;2022-12-04T00:46:05;30.67;;;16.52;;
48751;SDS011;34544;48.836;9.174;2022-12-04T00:48:31;29.70;;;14.02;;
48751;SDS011;34544;48.836;9.174;2022-12-04T00:51:06;25.83;;;14.63;;
48751;SDS011;34544;48.836;9.174;2022-12-04T00:53:34;27.77;;;15.40;;
48751;SDS011;34544;48.836;9.174;2022-12-04T00:56:04;25.88;;;14.88;;
48751;SDS011;34544;48.836;9.174;2022-12-04T00:58:31;25.63;;;14.10;;
48751;SDS011;34544;48.836;9.174;2022-12-04T01:01:01;26.52;;;14.13;;
48751;SDS011;34544;48.836;9.174;2022-12-04T01:03:29;30.77;;;15.95;;
48751;SDS011;34544;48.836;9.174;2022-12-04T01:05:55;27.80;;;14.45;;
48751;SDS011;34544;48.836;9.174;2022-12-04T01:08:21;28.60;;;15.55;;
48751;SDS011;34544;48.836;9.174;2022-12-04T01:10:46;31.58;;;16.75;;
48751;SDS011;34544;48.836;9.174;2022-12-04T01:13:12;29.30;;;14.65;;
48751;SDS011;34544;48.836;9.174;2022-12-04T01:15:38;27.08;;;13.68;;
48751;SDS011;34544;48.836;9.174;2022-12-04T01:18:05;31.33;;;15.40;;
48751;SDS011;34544;48.836;9.174;2022-12-04T01:20:30;29.80;;;13.80;;
48751;SDS011;34544;48.836;9.174;2022-12-04T01:22:56;26.52;;;13.68;;
48751;SDS011;34544;48.836;9.174;2022-12-04T01:25:22;29.48;;;15.10;;
48751;SDS011;34544;48.836;9.174;2022-12-04T01:27:47;30.80;;;15.68;;
48751;SDS011;34544;48.836;9.174;2022-12-04T01:30:13;32.88;;;15.15;;
48751;SDS011;34544;48.836;9.174;2022-12-04T01:32:39;30.25;;;15.23;;
48751;SDS011;34544;48.836;9.174;2022-12-04T01:35:05;29.33;;;13.60;;
48751;SDS011;34544;48.836;9.174;2022-12-04T01:37:31;33.95;;;17.27;;
48751;SDS011;34544;48.836;9.174;2022-12-04T01:39:57;29.10;;;14.27;;
48751;SDS011;34544;48.836;9.174;2022-12-04T01:42:23;29.77;;;16.20;;
48751;SDS011;34544;48.836;9.174;2022-12-04T01:47:53;31.58;;;14.43;;
48751;SDS011;34544;48.836;9.174;2022-12-04T01:50:22;32.95;;;14.48;;
48751;SDS011;34544;48.836;9.174;2022-12-04T01:52:48;31.70;;;16.08;;
48751;SDS011;34544;48.836;9.174;2022-12-04T01:55:14;27.67;;;13.95;;
48751;SDS011;34544;48.836;9.174;2022-12-04T01:57:39;26.60;;;13.43;;
48751;SDS011;34544;48.836;9.174;2022-12-04T02:00:09;25.30;;;13.27;;
48751;SDS011;34544;48.836;9.174;2022-12-04T02:02:41;29.80;;;15.75;;
48751;SDS011;34544;48.836;9.174;2022-12-04T02:05:20;27.48;;;14.35;;
48751;SDS011;34544;48.836;9.174;2022-12-04T02:07:48;29.70;;;14.80;;
48751;SDS011;34544;48.836;9.174;2022-12-04T02:10:16;29.25;;;14.40;;
48751;SDS011;34544;48.836;9.174;2022-12-04T02:15:59;25.75;;;14.20;;
48751;SDS011;34544;48.836;9.174;2022-12-04T02:18:44;31.63;;;15.88;;
48751;SDS011;34544;48.836;9.174;2022-12-04T02:24:11;25.17;;;14.35;;
48751;SDS011;34544;48.836;9.174;2022-12-04T02:26:52;26.73;;;14.82;;
48751;SDS011;34544;48.836;9.174;2022-12-04T02:29:35;30.88;;;15.48;;
48751;SDS011;34544;48.836;9.174;2022-12-04T02:32:19;27.77;;;13.95;;
48751;SDS011;34544;48.836;9.174;2022-12-04T02:34:52;29.83;;;15.40;;
48751;SDS011;34544;48.836;9.174;2022-12-04T02:37:34;26.60;;;13.07;;
48751;SDS011;34544;48.836;9.174;2022-12-04T02:40:08;27.38;;;14.02;;
48751;SDS011;34544;48.836;9.174;2022-12-04T02:45:24;25.02;;;13.73;;
48751;SDS011;34544;48.836;9.174;2022-12-04T02:47:54;30.17;;;16.80;;
48751;SDS011;34544;48.836;9.174;2022-12-04T02:50:22;26.88;;;14.43;;
48751;SDS011;34544;48.836;9.174;2022-12-04T02:52:53;29.27;;;15.45;;
48751;SDS011;34544;48.836;9.174;2022-12-04T02:55:29;33.15;;;15.80;;
48751;SDS011;34544;48.836;9.174;2022-12-04T02:58:19;28.92;;;16.00;;
48751;SDS011;34544;48.836;9.174;2022-12-04T03:00:49;30.95;;;17.23;;
48751;SDS011;34544;48.836;9.174;2022-12-04T03:03:22;28.85;;;15.60;;
48751;SDS011;34544;48.836;9.174;2022-12-04T03:06:00;29.15;;;16.38;;
48751;SDS011;34544;48.836;9.174;2022-12-04T03:08:39;30.30;;;14.48;;
48751;SDS011;34544;48.836;9.174;2022-12-04T03:11:09;27.88;;;15.40;;
48751;SDS011;34544;48.836;9.174;2022-12-04T03:13:36;29.75;;;16.00;;
48751;SDS011;34544;48.836;9.174;2022-12-04T03:16:13;29.85;;;15.35;;
48751;SDS011;34544;48.836;9.174;2022-12-04T03:18:50;32.85;;;15.95;;
48751;SDS011;34544;48.836;9.174;2022-12-04T03:21:27;30.60;;;16.33;;
48751;SDS011;34544;48.836;9.174;2022-12-04T03:27:09;27.40;;;15.82;;
48751;SDS011;34544;48.836;9.174;2022-12-04T03:29:41;30.60;;;16.08;;
48751;SDS011;34544;48.836;9.174;2022-12-04T03:32:21;31.20;;;16.48;;
48751;SDS011;34544;48.836;9.174;2022-12-04T03:42:40;29.83;;;17.40;;
48751;SDS011;34544;48.836;9.174;2022-12-04T03:45:21;26.90;;;15.13;;
48751;SDS011;34544;48.836;9.174;2022-12-04T03:47:55;25.25;;;16.15;;
48751;SDS011;34544;48.836;9.174;2022-12-04T03:53:11;28.48;;;16.00;;
48751;SDS011;34544;48.836;9.174;2022-12-04T03:58:34;28.92;;;16.85;;
48751;SDS011;34544;48.836;9.174;2022-12-04T04:01:02;30.90;;;16.70;;
48751;SDS011;34544;48.836;9.174;2022-12-04T04:03:34;27.45;;;16.63;;
48751;SDS011;34544;48.836;9.174;2022-12-04T04:06:08;29.13;;;18.08;;
48751;SDS011;34544;48.836;9.174;2022-12-04T04:08:41;29.00;;;16.45;;
48751;SDS011;34544;48.836;9.174;2022-12-04T04:11:11;31.88;;;16.50;;
48751;SDS011;34544;48.836;9.174;2022-12-04T04:13:43;33.80;;;17.52;;
48751;SDS011;34544;48.836;9.174;2022-12-04T04:16:54;29.20;;;16.02;;
48751;SDS011;34544;48.836;9.174;2022-12-04T04:19:45;32.35;;;16.52;;
48751;SDS011;34544;48.836;9.174;2022-12-04T04:22:35;31.00;;;17.58;;
48751;SDS011;34544;48.836;9.174;2022-12-04T04:25:21;26.50;;;15.75;;
48751;SDS011;34544;48.836;9.174;2022-12-04T04:27:52;29.52;;;16.13;;
48751;SDS011;34544;48.836;9.174;2022-12-04T04:30:20;32.88;;;17.85;;
48751;SDS011;34544;48.836;9.174;2022-12-04T04:32:57;29.77;;;16.55;;
48751;SDS011;34544;48.836;9.174;2022-12-04T04:35:52;29.33;;;17.67;;
48751;SDS011;34544;48.836;9.174;2022-12-04T04:38:27;31.15;;;17.90;;
48751;SDS011;34544;48.836;9.174;2022-12-04T04:46:28;26.17;;;15.93;;
48751;SDS011;34544;48.836;9.174;2022-12-04T04:48:59;36.97;;;19.48;;
48751;SDS011;34544;48.836;9.174;2022-12-04T04:51:27;32.08;;;19.00;;
48751;SDS011;34544;48.836;9.174;2022-12-04T04:53:54;28.45;;;16.05;;
48751;SDS011;34544;48.836;9.174;2022-12-04T04:56:22;27.52;;;16.60;;
48751;SDS011;34544;48.836;9.174;2022-12-04T04:58:49;29.05;;;16.38;;
48751;SDS011;34544;48.836;9.174;2022-12-04T05:01:15;26.67;;;16.52;;
48751;SDS011;34544;48.836;9.174;2022-12-04T05:03:43;29.30;;;17.13;;
48751;SDS011;34544;48.836;9.174;2022-12-04T05:06:09;30.45;;;16.92;;
48751;SDS011;34544;48.836;9.174;2022-12-04T05:08:35;27.92;;;17.05;;
48751;SDS011;34544;48.836;9.174;2022-12-04T05:11:01;29.90;;;16.55;;
48751;SDS011;34544;48.836;9.174;2022-12-04T05:13:29;30.92;;;16.83;;
48751;SDS011;34544;48.836;9.174;2022-12-04T05:15:55;29.58;;;17.08;;
48751;SDS011;34544;48.836;9.174;2022-12-04T05:18:29;31.63;;;19.00;;
48751;SDS011;34544;48.836;9.174;2022-12-04T05:20:55;28.85;;;16.67;;
48751;SDS011;34544;48.836;9.174;2022-12-04T05:23:21;30.48;;;17.35;;
48751;SDS011;34544;48.836;9.174;2022-12-04T05:25:47;28.05;;;16.75;;
48751;SDS011;34544;48.836;9.174;2022-12-04T05:28:14;27.45;;;17.42;;
48751;SDS011;34544;48.836;9.174;2022-12-04T05:30:40;25.45;;;15.70;;
48751;SDS011;34544;48.836;9.174;2022-12-04T05:33:06;26.60;;;15.65;;
48751;SDS011;34544;48.836;9.174;2022-12-04T05:35:31;27.85;;;16.83;;
48751;SDS011;34544;48.836;9.174;2022-12-04T05:37:57;31.45;;;16.05;;
48751;SDS011;34544;48.836;9.174;2022-12-04T05:40:23;30.15;;;16.50;;
48751;SDS011;34544;48.836;9.174;2022-12-04T05:42:48;26.02;;;15.02;;
48751;SDS011;34544;48.836;9.174;2022-12-04T05:45:14;29.63;;;17.30;;
48751;SDS011;34544;48.836;9.174;2022-12-04T05:47:41;27.52;;;16.42;;
48751;SDS011;34544;48.836;9.174;2022-12-04T05:50:08;28.13;;;14.85;;
48751;SDS011;34544;48.836;9.174;2022-12-04T05:52:35;23.38;;;13.98;;
48751;SDS011;34544;48.836;9.174;2022-12-04T05:55:01;28.60;;;16.05;;
48751;SDS011;34544;48.836;9.174;2022-12-04T05:57:26;26.85;;;15.52;;
48751;SDS011;34544;48.836;9.174;2022-12-04T05:59:52;29.00;;;15.57;;
48751;SDS011;34544;48.836;9.174;2022-12-04T06:02:18;29.10;;;16.35;;
48751;SDS011;34544;48.836;9.174;2022-12-04T06:04:43;25.95;;;14.52;;
48751;SDS011;34544;48.836;9.174;2022-12-04T06:07:09;27.80;;;15.48;;
48751;SDS011;34544;48.836;9.174;2022-12-04T06:09:35;25.10;;;15.20;;
48751;SDS011;34544;48.836;9.174;2022-12-04T06:12:02;29.33;;;15.73;;
48751;SDS011;34544;48.836;9.174;2022-12-04T06:14:28;27.20;;;15.57;;
48751;SDS011;34544;48.836;9.174;2022-12-04T06:16:54;30.35;;;16.38;;
48751;SDS011;34544;48.836;9.174;2022-12-04T06:19:20;28.45;;;15.05;;
48751;SDS011;34544;48.836;9.174;2022-12-04T06:21:47;26.27;;;15.65;;
48751;SDS011;34544;48.836;9.174;2022-12-04T06:24:21;25.65;;;15.00;;
48751;SDS011;34544;48.836;9.174;2022-12-04T06:26:48;27.65;;;15.30;;
48751;SDS011;34544;48.836;9.174;2022-12-04T06:29:15;26.90;;;14.80;;
48751;SDS011;34544;48.836;9.174;2022-12-04T06:31:40;28.23;;;15.10;;
48751;SDS011;34544;48.836;9.174;2022-12-04T06:34:06;28.65;;;15.25;;
48751;SDS011;34544;48.836;9.174;2022-12-04T06:36:34;23.92;;;13.55;;
48751;SDS011;34544;48.836;9.174;2022-12-04T06:39:00;24.02;;;15.18;;
48751;SDS011;34544;48.836;9.174;2022-12-04T06:41:26;27.00;;;15.07;;
48751;SDS011;34544;48.836;9.174;2022-12-04T06:43:53;30.05;;;15.18;;
48751;SDS011;34544;48.836;9.174;2022-12-04T06:46:20;25.75;;;14.55;;
48751;SDS011;34544;48.836;9.174;2022-12-04T06:48:48;28.40;;;15.52;;
48751;SDS011;34544;48.836;9.174;2022-12-04T06:51:15;27.10;;;14.80;;
48751;SDS011;34544;48.836;9.174;2022-12-04T06:53:52;30.55;;;16.58;;
48751;SDS011;34544;48.836;9.174;2022-12-04T06:56:22;25.10;;;13.88;;
48751;SDS011;34544;48.836;9.174;2022-12-04T06:58:51;26.63;;;15.43;;
48751;SDS011;34544;48.836;9.174;2022-12-04T07:01:19;24.83;;;14.68;;
48751;SDS011;34544;48.836;9.174;2022-12-04T07:03:47;26.52;;;14.85;;
48751;SDS011;34544;48.836;9.174;2022-12-04T07:06:14;29.60;;;15.32;;
48751;SDS011;34544;48.836;9.174;2022-12-04T07:08:41;31.48;;;15.30;;
48751;SDS011;34544;48.836;9.174;2022-12-04T07:11:10;22.50;;;13.23;;
48751;SDS011;34544;48.836;9.174;2022-12-04T07:13:36;26.00;;;13.45;;
48751;SDS011;34544;48.836;9.174;2022-12-04T07:16:03;23.25;;;13.48;;
48751;SDS011;34544;48.836;9.174;2022-12-04T07:18:30;27.02;;;15.38;;
48751;SDS011;34544;48.836;9.174;2022-12-04T07:20:56;25.05;;;14.88;;
48751;SDS011;34544;48.836;9.174;2022-12-04T07:23:23;29.40;;;16.48;;
48751;SDS011;34544;48.836;9.174;2022-12-04T07:25:48;25.20;;;15.43;;
48751;SDS011;34544;48.836;9.174;2022-12-04T07:28:14;29.70;;;15.35;;
48751;SDS011;34544;48.836;9.174;2022-12-04T07:30:40;29.65;;;15.57;;
48751;SDS011;34544;48.836;9.174;2022-12-04T07:33:06;25.25;;;14.48;;
48751;SDS011;34544;48.836;9.174;2022-12-04T07:35:31;27.80;;;14.75;;
48751;SDS011;34544;48.836;9.174;2022-12-04T07:37:57;28.23;;;16.02;;
48751;SDS011;34544;48.836;9.174;2022-12-04T07:40:23;26.15;;;15.60;;
48751;SDS011;34544;48.836;9.174;2022-12-04T07:42:48;29.30;;;15.88;;
48751;SDS011;34544;48.836;9.174;2022-12-04T07:45:14;32.30;;;16.23;;
48751;SDS011;34544;48.836;9.174;2022-12-04T07:47:40;26.65;;;14.98;;
48751;SDS011;34544;48.836;9.174;2022-12-04T07:50:06;24.52;;;15.55;;
48751;SDS011;34544;48.836;9.174;2022-12-04T07:52:35;28.60;;;15.77;;
48751;SDS011;34544;48.836;9.174;2022-12-04T07:55:02;25.35;;;14.48;;
48751;SDS011;34544;48.836;9.174;2022-12-04T07:57:29;27.58;;;15.20;;
48751;SDS011;34544;48.836;9.174;2022-12-04T07:59:54;33.25;;;17.05;;
48751;SDS011;34544;48.836;9.174;2022-12-04T08:02:20;31.23;;;15.82;;
48751;SDS011;34544;48.836;9.174;2022-12-04T08:04:46;29.35;;;15.80;;
48751;SDS011;34544;48.836;9.174;2022-12-04T08:07:11;27.33;;;14.55;;
48751;SDS011;34544;48.836;9.174;2022-12-04T08:09:37;29.15;;;16.95;;
48751;SDS011;34544;48.836;9.174;2022-12-04T08:12:03;28.02;;;15.93;;
48751;SDS011;34544;48.836;9.174;2022-12-04T08:14:29;29.67;;;16.10;;
48751;SDS011;34544;48.836;9.174;2022-12-04T08:16:54;31.52;;;15.98;;
48751;SDS011;34544;48.836;9.174;2022-12-04T08:19:20;31.70;;;15.82;;
48751;SDS011;34544;48.836;9.174;2022-12-04T08:21:46;27.65;;;16.30;;
48751;SDS011;34544;48.836;9.174;2022-12-04T08:24:12;28.13;;;15.23;;
48751;SDS011;34544;48.836;9.174;2022-12-04T08:26:38;27.10;;;14.75;;
48751;SDS011;34544;48.836;9.174;2022-12-04T08:29:04;28.58;;;14.23;;
48751;SDS011;34544;48.836;9.174;2022-12-04T08:31:32;27.48;;;15.65;;
48751;SDS011;34544;48.836;9.174;2022-12-04T08:33:59;26.10;;;15.18;;
48751;SDS011;34544;48.836;9.174;2022-12-04T08:36:26;28.40;;;15.77;;
48751;SDS011;34544;48.836;9.174;2022-12-04T08:38:53;27.05;;;15.43;;
48751;SDS011;34544;48.836;9.174;2022-12-04T08:41:20;27.10;;;15.35;;
48751;SDS011;34544;48.836;9.174;2022-12-04T08:43:47;28.05;;;16.65;;
48751;SDS011;34544;48.836;9.174;2022-12-04T08:46:14;24.90;;;15.65;;
48751;SDS011;34544;48.836;9.174;2022-12-04T08:48:42;26.92;;;15.50;;
48751;SDS011;34544;48.836;9.174;2022-12-04T08:51:19;29.63;;;16.15;;
48751;SDS011;34544;48.836;9.174;2022-12-04T08:53:47;25.15;;;15.63;;
48751;SDS011;34544;48.836;9.174;2022-12-04T08:56:16;27.05;;;15.68;;
48751;SDS011;34544;48.836;9.174;2022-12-04T08:58:42;29.52;;;15.32;;
48751;SDS011;34544;48.836;9.174;2022-12-04T09:01:08;29.42;;;16.85;;
48751;SDS011;34544;48.836;9.174;2022-12-04T09:03:35;28.05;;;15.30;;
48751;SDS011;34544;48.836;9.174;2022-12-04T09:06:02;29.80;;;17.75;;
48751;SDS011;34544;48.836;9.174;2022-12-04T09:08:29;27.63;;;16.50;;
48751;SDS011;34544;48.836;9.174;2022-12-04T09:11:00;25.92;;;14.82;;
48751;SDS011;34544;48.836;9.174;2022-12-04T09:13:37;26.95;;;14.45;;
48751;SDS011;34544;48.836;9.174;2022-12-04T09:16:05;26.73;;;14.80;;
48751;SDS011;34544;48.836;9.174;2022-12-04T09:18:33;28.88;;;15.57;;
48751;SDS011;34544;48.836;9.174;2022-12-04T09:21:01;27.48;;;15.82;;
48751;SDS011;34544;48.836;9.174;2022-12-04T09:23:29;26.25;;;15.00;;
48751;SDS011;34544;48.836;9.174;2022-12-04T09:25:55;23.88;;;15.02;;
48751;SDS011;34544;48.836;9.174;2022-12-04T09:28:21;30.25;;;15.57;;
48751;SDS011;34544;48.836;9.174;2022-12-04T09:31:00;28.10;;;15.40;;
48751;SDS011;34544;48.836;9.174;2022-12-04T09:33:27;29.70;;;15.43;;
48751;SDS011;34544;48.836;9.174;2022-12-04T09:35:54;29.65;;;15.85;;
48751;SDS011;34544;48.836;9.174;2022-12-04T09:38:23;28.13;;;15.43;;
48751;SDS011;34544;48.836;9.174;2022-12-04T09:40:53;26.85;;;15.70;;
48751;SDS011;34544;48.836;9.174;2022-12-04T09:43:30;29.42;;;16.25;;
48751;SDS011;34544;48.836;9.174;2022-12-04T09:46:11;27.25;;;15.45;;
48751;SDS011;34544;48.836;9.174;2022-12-04T09:48:44;27.13;;;14.93;;
48751;SDS011;34544;48.836;9.174;2022-12-04T09:51:13;29.48;;;15.77;;
48751;SDS011;34544;48.836;9.174;2022-12-04T09:53:46;25.35;;;14.32;;
48751;SDS011;34544;48.836;9.174;2022-12-04T09:56:17;23.77;;;15.32;;
48751;SDS011;34544;48.836;9.174;2022-12-04T09:58:54;26.80;;;16.33;;
48751;SDS011;34544;48.836;9.174;2022-12-04T10:01:32;26.35;;;15.68;;
48751;SDS011;34544;48.836;9.174;2022-12-04T10:04:10;25.30;;;14.38;;
48751;SDS011;34544;48.836;9.174;2022-12-04T10:06:39;29.33;;;13.85;;
48751;SDS011;34544;48.836;9.174;2022-12-04T10:09:19;29.27;;;16.10;;
48751;SDS011;34544;48.836;9.174;2022-12-04T10:12:22;24.42;;;13.18;;
48751;SDS011;34544;48.836;9.174;2022-12-04T10:15:06;26.67;;;13.60;;
48751;SDS011;34544;48.836;9.174;2022-12-04T10:18:08;28.85;;;15.82;;
48751;SDS011;34544;48.836;9.174;2022-12-04T10:20:45;25.52;;;14.82;;
48751;SDS011;34544;48.836;9.174;2022-12-04T10:26:15;27.92;;;14.27;;
48751;SDS011;34544;48.836;9.174;2022-12-04T10:28:46;27.70;;;15.63;;
48751;SDS011;34544;48.836;9.174;2022-12-04T10:36:30;29.10;;;14.82;;
48751;SDS011;34544;48.836;9.174;2022-12-04T10:39:02;24.75;;;14.55;;
48751;SDS011;34544;48.836;9.174;2022-12-04T10:44:22;25.70;;;13.48;;
48751;SDS011;34544;48.836;9.174;2022-12-04T10:46:48;24.35;;;14.07;;
48751;SDS011;34544;48.836;9.174;2022-12-04T10:49:18;22.10;;;13.10;;
48751;SDS011;34544;48.836;9.174;2022-12-04T10:51:48;21.05;;;12.65;;
48751;SDS011;34544;48.836;9.174;2022-12-04T10:56:57;22.40;;;13.52;;
48751;SDS011;34544;48.836;9.174;2022-12-04T10:59:28;24.38;;;13.40;;
48751;SDS011;34544;48.836;9.174;2022-12-04T11:02:04;28.58;;;14.90;;
48751;SDS011;34544;48.836;9.174;2022-12-04T11:07:35;25.98;;;14.68;;
48751;SDS011;34544;48.836;9.174;2022-12-04T11:10:23;28.75;;;14.05;;
48751;SDS011;34544;48.836;9.174;2022-12-04T11:12:58;24.63;;;13.80;;
48751;SDS011;34544;48.836;9.174;2022-12-04T11:15:26;21.92;;;12.75;;
48751;SDS011;34544;48.836;9.174;2022-12-04T11:17:52;27.90;;;12.93;;
48751;SDS011;34544;48.836;9.174;2022-12-04T11:20:25;22.83;;;12.23;;
48751;SDS011;34544;48.836;9.174;2022-12-04T11:22:52;24.48;;;14.43;;
48751;SDS011;34544;48.836;9.174;2022-12-04T11:25:27;28.58;;;13.85;;
48751;SDS011;34544;48.836;9.174;2022-12-04T11:27:59;23.33;;;12.63;;
48751;SDS011;34544;48.836;9.174;2022-12-04T11:32:57;27.98;;;12.25;;
48751;SDS011;34544;48.836;9.174;2022-12-04T11:35:24;22.65;;;12.88;;
48751;SDS011;34544;48.836;9.174;2022-12-04T11:40:22;25.67;;;12.60;;
48751;SDS011;34544;48.836;9.174;2022-12-04T11:45:29;21.48;;;12.18;;
48751;SDS011;34544;48.836;9.174;2022-12-04T11:47:57;22.58;;;13.15;;
48751;SDS011;34544;48.836;9.174;2022-12-04T11:50:27;25.30;;;12.90;;
48751;SDS011;34544;48.836;9.174;2022-12-04T11:55:41;19.95;;;11.95;;
48751;SDS011;34544;48.836;9.174;2022-12-04T11:58:35;21.90;;;12.45;;
48751;SDS011;34544;48.836;9.174;2022-12-04T12:03:55;23.60;;;13.68;;
48751;SDS011;34544;48.836;9.174;2022-12-04T12:06:33;21.17;;;12.38;;
48751;SDS011;34544;48.836;9.174;2022-12-04T12:09:05;20.25;;;12.52;;
48751;SDS011;34544;48.836;9.174;2022-12-04T12:22:39;21.35;;;12.55;;
48751;SDS011;34544;48.836;9.174;2022-12-04T12:25:17;23.40;;;12.75;;
48751;SDS011;34544;48.836;9.174;2022-12-04T12:30:26;20.33;;;11.27;;
48751;SDS011;34544;48.836;9.174;2022-12-04T12:35:29;21.90;;;12.30;;
48751;SDS011;34544;48.836;9.174;2022-12-04T12:38:03;24.65;;;14.05;;
48751;SDS011;34544;48.836;9.174;2022-12-04T12:40:42;22.33;;;12.10;;
48751;SDS011;34544;48.836;9.174;2022-12-04T12:43:16;25.10;;;13.75;;
48751;SDS011;34544;48.836;9.174;2022-12-04T12:46:01;29.85;;;16.17;;
48751;SDS011;34544;48.836;9.174;2022-12-04T12:51:19;23.60;;;13.02;;
48751;SDS011;34544;48.836;9.174;2022-12-04T12:57:06;20.52;;;11.15;;
48751;SDS011;34544;48.836;9.174;2022-12-04T12:59:53;18.05;;;11.20;;
48751;SDS011;34544;48.836;9.174;2022-12-04T13:02:38;22.63;;;11.55;;
48751;SDS011;34544;48.836;9.174;2022-12-04T13:05:26;23.38;;;11.55;;
48751;SDS011;34544;48.836;9.174;2022-12-04T13:08:16;24.13;;;12.45;;
48751;SDS011;34544;48.836;9.174;2022-12-04T13:10:48;25.48;;;14.38;;
48751;SDS011;34544;48.836;9.174;2022-12-04T13:13:49;25.25;;;12.77;;
48751;SDS011;34544;48.836;9.174;2022-12-04T13:16:20;21.98;;;12.40;;
48751;SDS011;34544;48.836;9.174;2022-12-04T13:21:28;22.65;;;11.55;;
48751;SDS011;34544;48.836;9.174;2022-12-04T13:24:03;19.90;;;11.85;;
48751;SDS011;34544;48.836;9.174;2022-12-04T13:29:43;25.27;;;11.10;;
48751;SDS011;34544;48.836;9.174;2022-12-04T13:40:59;17.77;;;10.63;;
48751;SDS011;34544;48.836;9.174;2022-12-04T13:43:29;23.48;;;11.52;;
48751;SDS011;34544;48.836;9.174;2022-12-04T13:46:01;21.67;;;11.52;;
48751;SDS011;34544;48.836;9.174;2022-12-04T13:48:35;23.17;;;10.18;;
48751;SDS011;34544;48.836;9.174;2022-12-04T13:51:13;21.80;;;12.77;;
48751;SDS011;34544;48.836;9.174;2022-12-04T13:54:02;22.90;;;13.05;;
48751;SDS011;34544;48.836;9.174;2022-12-04T13:56:46;25.48;;;12.38;;
48751;SDS011;34544;48.836;9.174;2022-12-04T14:02:02;20.95;;;12.15;;
48751;SDS011;34544;48.836;9.174;2022-12-04T14:05:02;23.52;;;12.65;;
48751;SDS011;34544;48.836;9.174;2022-12-04T14:07:32;22.30;;;13.35;;
48751;SDS011;34544;48.836;9.174;2022-12-04T14:10:05;22.83;;;14.23;;
48751;SDS011;34544;48.836;9.174;2022-12-04T14:12:38;22.13;;;11.68;;
48751;SDS011;34544;48.836;9.174;2022-12-04T14:15:23;23.77;;;11.65;;
48751;SDS011;34544;48.836;9.174;2022-12-04T14:18:05;22.15;;;12.05;;
48751;SDS011;34544;48.836;9.174;2022-12-04T14:20:44;25.75;;;11.35;;
48751;SDS011;34544;48.836;9.174;2022-12-04T14:23:23;27.33;;;12.73;;
48751;SDS011;34544;48.836;9.174;2022-12-04T14:25:51;26.70;;;13.52;;
48751;SDS011;34544;48.836;9.174;2022-12-04T14:33:27;22.23;;;12.57;;
48751;SDS011;34544;48.836;9.174;2022-12-04T14:36:02;26.90;;;13.00;;
48751;SDS011;34544;48.836;9.174;2022-12-04T14:38:32;28.75;;;13.77;;
48751;SDS011;34544;48.836;9.174;2022-12-04T14:40:58;25.98;;;12.10;;
48751;SDS011;34544;48.836;9.174;2022-12-04T14:43:33;21.98;;;12.10;;
48751;SDS011;34544;48.836;9.174;2022-12-04T14:48:59;23.65;;;12.73;;
48751;SDS011;34544;48.836;9.174;2022-12-04T14:51:39;23.20;;;13.20;;
48751;SDS011;34544;48.836;9.174;2022-12-04T14:59:42;27.48;;;13.23;;
48751;SDS011;34544;48.836;9.174;2022-12-04T15:02:12;21.73;;;11.70;;
48751;SDS011;34544;48.836;9.174;2022-12-04T15:04:45;26.90;;;13.43;;
48751;SDS011;34544;48.836;9.174;2022-12-04T15:07:26;25.70;;;11.88;;
48751;SDS011;34544;48.836;9.174;2022-12-04T15:09:55;22.77;;;12.25;;
48751;SDS011;34544;48.836;9.174;2022-12-04T15:12:46;26.13;;;12.45;;
48751;SDS011;34544;48.836;9.174;2022-12-04T15:15:18;26.55;;;12.80;;
48751;SDS011;34544;48.836;9.174;2022-12-04T15:21:16;24.85;;;12.48;;
48751;SDS011;34544;48.836;9.174;2022-12-04T15:31:33;27.00;;;13.85;;
48751;SDS011;34544;48.836;9.174;2022-12-04T15:34:18;26.02;;;12.98;;
48751;SDS011;34544;48.836;9.174;2022-12-04T15:36:49;30.52;;;14.32;;
48751;SDS011;34544;48.836;9.174;2022-12-04T15:39:21;25.77;;;13.10;;
48751;SDS011;34544;48.836;9.174;2022-12-04T15:41:50;29.42;;;15.80;;
48751;SDS011;34544;48.836;9.174;2022-12-04T15:47:22;26.10;;;13.85;;
48751;SDS011;34544;48.836;9.174;2022-12-04T15:49:49;35.47;;;16.55;;
48751;SDS011;34544;48.836;9.174;2022-12-04T15:52:16;30.20;;;15.68;;
48751;SDS011;34544;48.836;9.174;2022-12-04T15:54:49;43.10;;;19.05;;
48751;SDS011;34544;48.836;9.174;2022-12-04T15:57:20;29.67;;;14.48;;
48751;SDS011;34544;48.836;9.174;2022-12-04T15:59:47;32.42;;;15.20;;
48751;SDS011;34544;48.836;9.174;2022-12-04T16:02:29;37.70;;;15.52;;
48751;SDS011;34544;48.836;9.174;2022-12-04T16:04:57;35.53;;;18.00;;
48751;SDS011;34544;48.836;9.174;2022-12-04T16:07:24;39.15;;;18.23;;
48751;SDS011;34544;48.836;9.174;2022-12-04T16:09:53;34.47;;;17.90;;
48751;SDS011;34544;48.836;9.174;2022-12-04T16:12:25;44.72;;;18.58;;
48751;SDS011;34544;48.836;9.174;2022-12-04T16:14:53;34.50;;;15.68;;
48751;SDS011;34544;48.836;9.174;2022-12-04T16:17:28;28.55;;;16.13;;
48751;SDS011;34544;48.836;9.174;2022-12-04T16:19:56;35.53;;;16.65;;
48751;SDS011;34544;48.836;9.174;2022-12-04T16:22:22;31.70;;;15.07;;
48751;SDS011;34544;48.836;9.174;2022-12-04T16:24:50;31.83;;;15.57;;
48751;SDS011;34544;48.836;9.174;2022-12-04T16:27:17;36.47;;;17.00;;
48751;SDS011;34544;48.836;9.174;2022-12-04T16:29:47;36.60;;;16.17;;
48751;SDS011;34544;48.836;9.174;2022-12-04T16:32:18;39.30;;;15.07;;
48751;SDS011;34544;48.836;9.174;2022-12-04T16:34:45;35.00;;;15.90;;
48751;SDS011;34544;48.836;9.174;2022-12-04T16:37:12;38.28;;;16.88;;
48751;SDS011;34544;48.836;9.174;2022-12-04T16:39:42;45.95;;;17.73;;
48751;SDS011;34544;48.836;9.174;2022-12-04T16:42:13;46.45;;;18.35;;
48751;SDS011;34544;48.836;9.174;2022-12-04T16:44:42;60.20;;;25.05;;
48751;SDS011;34544;48.836;9.174;2022-12-04T16:47:09;52.60;;;24.30;;
48751;SDS011;34544;48.836;9.174;2022-12-04T16:49:36;48.03;;;19.08;;
48751;SDS011;34544;48.836;9.174;2022-12-04T16:52:02;39.00;;;18.23;;
48751;SDS011;34544;48.836;9.174;2022-12-04T16:54:28;41.25;;;17.58;;